Time;durP1;ratioP1;P1;durP2;ratioP2;P2;SDS_P1;SDS_P2;PMS_P1;PMS_P2;Temp;Humidity;BMP_temperature;BMP_pressure;BME280_temperature;BME280_humidity;BME280_pressure;Samples;Min_cycle;Max_cycle;Signal;HPM_P1;HPM_P2
2021/04/28 00:01:37;;;;;;;13.32;4.80;;;7.90;48.30;;;;;;5049884;28;20028;-62
2021/04/28 00:04:04;;;;;;;8.27;5.15;;;7.90;48.40;;;;;;5045452;28;20065;-62
2021/04/28 00:06:30;;;;;;;10.90;4.80;;;7.80;48.80;;;;;;5029866;28;20072;-62
2021/04/28 00:08:55;;;;;;;8.43;4.72;;;7.80;48.60;;;;;;5029436;28;20388;-62
2021/04/28 00:11:21;;;;;;;11.88;4.85;;;7.80;49.00;;;;;;5030867;28;20025;-62
2021/04/28 00:13:47;;;;;;;9.30;5.32;;;7.80;48.90;;;;;;5030155;28;20147;-62
2021/04/28 00:16:12;;;;;;;13.15;5.18;;;7.60;49.40;;;;;;5029676;28;20469;-62
2021/04/28 00:18:38;;;;;;;8.05;5.38;;;7.60;49.50;;;;;;5027674;28;20029;-62
2021/04/28 00:21:04;;;;;;;6.97;4.40;;;7.50;50.00;;;;;;5030183;28;20025;-62
2021/04/28 00:23:29;;;;;;;8.02;5.28;;;7.50;49.90;;;;;;5030541;28;20464;-62
2021/04/28 00:25:55;;;;;;;9.75;4.47;;;7.40;50.30;;;;;;5046177;28;20025;-62
2021/04/28 00:28:21;;;;;;;7.72;4.78;;;7.30;50.90;;;;;;5049720;28;20029;-62
2021/04/28 00:30:46;;;;;;;9.43;4.93;;;7.30;51.00;;;;;;5049874;28;20500;-62
2021/04/28 00:33:12;;;;;;;8.30;4.90;;;7.10;51.40;;;;;;5050448;28;20091;-62
2021/04/28 00:35:38;;;;;;;8.30;5.13;;;7.00;51.90;;;;;;5048874;28;20044;-62
2021/04/28 00:38:03;;;;;;;9.32;4.80;;;7.00;52.20;;;;;;5049425;28;20064;-62
2021/04/28 00:40:32;;;;;;;8.25;4.45;;;6.90;52.50;;;;;;5032421;28;20146;-62
2021/04/28 00:42:58;;;;;;;7.47;5.00;;;6.80;52.90;;;;;;5049224;28;20064;-62
2021/04/28 00:45:24;;;;;;;6.32;4.82;;;6.70;53.40;;;;;;5050045;28;20059;-62
2021/04/28 00:47:51;;;;;;;10.65;4.65;;;6.70;53.70;;;;;;5046275;28;20028;-62
2021/04/28 00:50:19;;;;;;;10.05;4.50;;;6.50;54.30;;;;;;5048543;28;20024;-62
2021/04/28 00:52:46;;;;;;;8.68;4.90;;;6.50;54.40;;;;;;5048309;28;20028;-62
2021/04/28 00:55:12;;;;;;;8.13;4.78;;;6.50;54.70;;;;;;5032371;28;20502;-62
2021/04/28 00:57:38;;;;;;;6.40;4.55;;;6.50;55.10;;;;;;5048525;28;20869;-63
2021/04/28 01:00:09;;;;;;;11.13;5.10;;;6.40;55.50;;;;;;5048883;28;20116;-62
2021/04/28 01:02:35;;;;;;;7.65;5.18;;;6.40;55.60;;;;;;5031627;28;20036;-62
2021/04/28 01:05:01;;;;;;;6.97;5.43;;;6.30;56.10;;;;;;5049487;28;20029;-62
2021/04/28 01:07:27;;;;;;;7.97;5.07;;;6.30;55.70;;;;;;5047681;28;20041;-61
2021/04/28 01:09:52;;;;;;;12.43;5.38;;;6.30;55.90;;;;;;5031404;28;20028;-62
2021/04/28 01:12:18;;;;;;;6.55;5.10;;;6.20;56.60;;;;;;5048267;28;20360;-62
2021/04/28 01:14:44;;;;;;;8.73;5.45;;;6.10;56.80;;;;;;5048075;28;20379;-62
2021/04/28 01:17:09;;;;;;;11.43;5.65;;;6.00;56.80;;;;;;5047602;28;20032;-62
2021/04/28 01:19:37;;;;;;;10.40;5.40;;;6.00;56.90;;;;;;5047145;28;20028;-62
2021/04/28 01:22:03;;;;;;;13.57;5.63;;;6.00;57.20;;;;;;5049870;28;20029;-62
2021/04/28 01:24:29;;;;;;;8.02;5.10;;;5.90;57.20;;;;;;5048226;28;20108;-62
2021/04/28 01:26:55;;;;;;;8.70;5.30;;;6.00;56.70;;;;;;5047491;28;20104;-62
2021/04/28 01:29:24;;;;;;;16.38;5.05;;;5.90;57.20;;;;;;5048033;28;20098;-62
2021/04/28 01:31:50;;;;;;;12.13;5.20;;;5.90;57.40;;;;;;5047642;28;20483;-61
2021/04/28 01:34:15;;;;;;;8.52;5.20;;;5.80;57.70;;;;;;5031335;28;20033;-62
2021/04/28 01:36:41;;;;;;;9.73;6.85;;;5.80;57.70;;;;;;5047250;28;20104;-62
2021/04/28 01:39:09;;;;;;;9.98;5.75;;;5.70;58.10;;;;;;5048588;28;20459;-62
2021/04/28 01:41:40;;;;;;;11.88;5.50;;;5.70;58.00;;;;;;5046988;28;20025;-62
2021/04/28 01:44:06;;;;;;;10.48;5.75;;;5.70;57.80;;;;;;5049397;28;20031;-62
2021/04/28 01:46:32;;;;;;;10.00;5.68;;;5.60;58.30;;;;;;5031308;28;20116;-62
2021/04/28 01:48:57;;;;;;;9.85;5.70;;;5.50;58.60;;;;;;5044962;28;20126;-62
2021/04/28 01:51:23;;;;;;;9.57;5.35;;;5.50;58.50;;;;;;5047778;28;20097;-62
2021/04/28 01:53:48;;;;;;;12.65;5.80;;;5.50;58.50;;;;;;5048626;28;20155;-62
2021/04/28 01:56:14;;;;;;;16.08;5.50;;;5.50;58.50;;;;;;5031212;28;20495;-62
2021/04/28 01:58:40;;;;;;;11.60;5.70;;;5.40;58.60;;;;;;5047253;28;20486;-62
2021/04/28 02:01:06;;;;;;;11.48;5.68;;;5.40;58.90;;;;;;5047812;28;20475;-62
2021/04/28 02:03:32;;;;;;;9.65;5.68;;;5.40;58.70;;;;;;5047139;28;20017;-62
2021/04/28 02:05:59;;;;;;;10.60;5.80;;;5.40;58.60;;;;;;5046628;28;20036;-62
2021/04/28 02:08:24;;;;;;;11.50;5.20;;;5.40;58.70;;;;;;5047753;28;20028;-62
2021/04/28 02:10:50;;;;;;;6.55;5.20;;;5.40;58.50;;;;;;5048031;28;20021;-62
2021/04/28 02:13:16;;;;;;;9.68;5.25;;;5.40;59.10;;;;;;5048195;28;20067;-61
2021/04/28 02:15:42;;;;;;;8.27;5.15;;;5.40;58.70;;;;;;5046934;28;20025;-62
2021/04/28 02:18:07;;;;;;;10.35;5.38;;;5.30;58.80;;;;;;5045355;28;20434;-62
2021/04/28 02:20:33;;;;;;;7.72;5.20;;;5.30;58.70;;;;;;5051513;28;20037;-62
2021/04/28 02:23:00;;;;;;;10.43;5.45;;;5.30;59.10;;;;;;5051285;28;20021;-62
2021/04/28 02:25:26;;;;;;;8.95;5.22;;;5.20;59.30;;;;;;5052099;28;20036;-62
2021/04/28 02:27:54;;;;;;;11.18;6.50;;;5.20;59.30;;;;;;5052129;28;20025;-62
2021/04/28 02:30:22;;;;;;;7.43;5.22;;;5.10;59.50;;;;;;5052597;28;20025;-62
2021/04/28 02:32:49;;;;;;;7.47;5.00;;;5.10;59.50;;;;;;5050668;28;20108;-61
2021/04/28 02:35:15;;;;;;;10.27;4.90;;;5.10;59.60;;;;;;5052877;28;20064;-62
2021/04/28 02:37:41;;;;;;;8.55;5.07;;;5.00;59.70;;;;;;5050706;28;20112;-61
2021/04/28 02:40:12;;;;;;;9.18;5.35;;;5.00;59.40;;;;;;5051150;28;20048;-61
2021/04/28 02:42:39;;;;;;;10.70;5.50;;;5.00;59.50;;;;;;5051871;28;20029;-61
2021/04/28 02:45:06;;;;;;;9.73;5.10;;;5.00;59.90;;;;;;5051653;28;20028;-61
2021/04/28 02:47:32;;;;;;;9.95;5.30;;;4.90;59.90;;;;;;5049745;28;20609;-61
2021/04/28 02:49:58;;;;;;;13.45;5.30;;;4.90;60.00;;;;;;5033812;28;20032;-61
2021/04/28 02:52:23;;;;;;;8.52;5.65;;;4.90;60.30;;;;;;5018094;28;20369;-61
2021/04/28 02:54:49;;;;;;;11.45;5.40;;;4.90;60.30;;;;;;5034372;28;20040;-62
2021/04/28 02:57:15;;;;;;;8.00;5.38;;;4.80;60.40;;;;;;5034558;28;20032;-61
2021/04/28 02:59:41;;;;;;;9.75;5.97;;;4.80;60.10;;;;;;5050349;28;20099;-61
2021/04/28 03:02:07;;;;;;;9.60;5.60;;;4.80;60.50;;;;;;5034698;28;20029;-61
2021/04/28 03:04:33;;;;;;;10.45;5.25;;;4.70;60.60;;;;;;5033671;28;20029;-62
2021/04/28 03:06:59;;;;;;;8.95;4.97;;;4.80;60.50;;;;;;5033626;28;20048;-62
2021/04/28 03:09:24;;;;;;;12.85;5.20;;;4.80;60.00;;;;;;5034142;28;20527;-62
2021/04/28 03:11:50;;;;;;;9.13;5.68;;;4.80;60.20;;;;;;5051437;28;20039;-62
2021/04/28 03:14:16;;;;;;;11.38;5.43;;;4.80;60.50;;;;;;5034335;28;20514;-62
2021/04/28 03:16:41;;;;;;;8.02;4.85;;;4.90;60.40;;;;;;5051404;28;20024;-61
2021/04/28 03:19:07;;;;;;;9.25;5.20;;;4.90;60.10;;;;;;5048281;28;20040;-62
2021/04/28 03:21:39;;;;;;;15.05;6.00;;;4.80;60.30;;;;;;5051784;28;20495;-61
2021/04/28 03:24:05;;;;;;;7.22;4.70;;;4.80;60.30;;;;;;5050837;28;20114;-62
2021/04/28 03:26:30;;;;;;;9.88;5.95;;;4.80;60.50;;;;;;5050146;28;20079;-61
2021/04/28 03:28:56;;;;;;;15.15;5.15;;;4.80;60.30;;;;;;5050020;28;20096;-61
2021/04/28 03:31:22;;;;;;;8.35;5.13;;;4.70;60.30;;;;;;5050401;28;20095;-61
2021/04/28 03:33:48;;;;;;;10.90;5.68;;;4.70;60.30;;;;;;5050959;28;20542;-61
2021/04/28 03:36:13;;;;;;;7.20;5.43;;;4.70;60.50;;;;;;5033733;28;20339;-61
2021/04/28 03:38:39;;;;;;;7.75;5.43;;;4.70;60.60;;;;;;5049536;28;20025;-61
2021/04/28 03:41:05;;;;;;;9.75;5.82;;;4.60;60.90;;;;;;5050193;28;20078;-62
2021/04/28 03:43:30;;;;;;;9.68;5.63;;;4.60;61.10;;;;;;5051197;28;20013;-62
2021/04/28 03:45:56;;;;;;;13.07;5.47;;;4.60;60.90;;;;;;5050965;28;20025;-62
2021/04/28 03:48:21;;;;;;;6.10;5.47;;;4.60;60.90;;;;;;5048565;28;20029;-61
2021/04/28 03:50:47;;;;;;;9.05;6.07;;;4.60;60.70;;;;;;5050655;28;20033;-61
2021/04/28 03:53:13;;;;;;;8.18;5.68;;;4.50;61.00;;;;;;5051307;28;20429;-62
2021/04/28 03:55:38;;;;;;;9.68;5.95;;;4.50;61.00;;;;;;5049913;28;20574;-61
2021/04/28 03:58:04;;;;;;;10.23;5.50;;;4.50;61.40;;;;;;5033649;28;20031;-61
2021/04/28 04:00:30;;;;;;;8.63;5.25;;;4.50;61.20;;;;;;5049935;28;20408;-62
2021/04/28 04:02:55;;;;;;;13.38;5.32;;;4.40;61.20;;;;;;5048941;28;20031;-61
2021/04/28 04:05:21;;;;;;;11.00;6.10;;;4.40;61.40;;;;;;5050696;28;20418;-62
2021/04/28 04:07:46;;;;;;;9.70;5.85;;;4.40;61.40;;;;;;5049984;28;20454;-61
2021/04/28 04:10:13;;;;;;;9.00;5.93;;;4.30;61.60;;;;;;5050444;28;20468;-62
2021/04/28 04:12:38;;;;;;;11.20;5.90;;;4.30;61.90;;;;;;5049025;28;20033;-61
2021/04/28 04:15:05;;;;;;;8.60;5.90;;;4.30;61.70;;;;;;5050972;28;20017;-61
2021/04/28 04:17:31;;;;;;;8.95;6.00;;;4.30;62.00;;;;;;5047002;28;20024;-61
2021/04/28 04:19:56;;;;;;;9.38;5.53;;;4.30;62.00;;;;;;5050052;28;20021;-61
2021/04/28 04:22:22;;;;;;;10.38;6.05;;;4.20;61.60;;;;;;5050162;28;20392;-61
2021/04/28 04:24:47;;;;;;;13.38;6.15;;;4.30;61.40;;;;;;5048169;28;20086;-61
2021/04/28 04:27:13;;;;;;;11.80;5.55;;;4.30;61.60;;;;;;5050639;28;20025;-61
2021/04/28 04:29:39;;;;;;;8.95;5.75;;;4.30;61.80;;;;;;5049505;28;20020;-62
2021/04/28 04:32:05;;;;;;;9.05;5.90;;;4.30;61.90;;;;;;5050488;28;20096;-61
2021/04/28 04:34:30;;;;;;;16.05;5.50;;;4.30;61.70;;;;;;5050210;28;20032;-62
2021/04/28 04:36:56;;;;;;;10.77;5.65;;;4.30;61.80;;;;;;5049703;28;20028;-62
2021/04/28 04:39:22;;;;;;;8.38;5.40;;;4.30;62.00;;;;;;5049760;28;20442;-62
2021/04/28 04:41:47;;;;;;;11.50;5.82;;;4.50;61.60;;;;;;5048925;28;20224;-62
2021/04/28 04:44:13;;;;;;;13.63;5.68;;;4.70;60.70;;;;;;5050877;28;20023;-61
2021/04/28 04:46:38;;;;;;;7.70;5.28;;;4.70;60.70;;;;;;5048546;28;20036;-62
2021/04/28 04:49:04;;;;;;;14.50;5.70;;;5.00;60.00;;;;;;5048131;28;20032;-60
2021/04/28 04:51:30;;;;;;;10.65;5.18;;;4.80;60.40;;;;;;5048631;28;20033;-61
2021/04/28 04:53:55;;;;;;;9.77;5.20;;;5.00;59.80;;;;;;5049046;28;20096;-61
2021/04/28 04:56:21;;;;;;;8.57;5.43;;;4.60;60.30;;;;;;5048804;28;20088;-62
2021/04/28 04:58:46;;;;;;;9.32;5.53;;;4.70;60.60;;;;;;5048147;28;20059;-61
2021/04/28 05:01:12;;;;;;;9.27;5.55;;;5.30;58.80;;;;;;5048230;28;20383;-61
2021/04/28 05:03:38;;;;;;;13.82;5.78;;;5.90;57.20;;;;;;5049190;28;20325;-62
2021/04/28 05:06:03;;;;;;;10.32;5.55;;;6.00;56.70;;;;;;5048641;28;20510;-61
2021/04/28 05:08:29;;;;;;;10.68;5.78;;;6.50;55.40;;;;;;5048869;28;20029;-62
2021/04/28 05:10:55;;;;;;;9.60;6.03;;;6.70;54.50;;;;;;5049384;28;20020;-62
2021/04/28 05:13:20;;;;;;;11.63;5.18;;;6.90;54.20;;;;;;5031558;28;20414;-62
2021/04/28 05:15:46;;;;;;;8.23;5.70;;;7.00;54.50;;;;;;5048680;28;20091;-61
2021/04/28 05:18:12;;;;;;;15.07;5.65;;;7.30;53.40;;;;;;5045278;28;20090;-62
2021/04/28 05:20:37;;;;;;;12.15;5.63;;;7.50;52.80;;;;;;5048319;28;20094;-62
2021/04/28 05:23:03;;;;;;;10.63;5.75;;;7.90;51.50;;;;;;5047653;28;20467;-62
2021/04/28 05:25:29;;;;;;;8.27;5.40;;;7.80;52.20;;;;;;5047450;28;20036;-62
2021/04/28 05:27:54;;;;;;;10.90;6.13;;;8.20;51.20;;;;;;5047394;28;20079;-62
2021/04/28 05:30:20;;;;;;;13.00;5.60;;;8.00;50.50;;;;;;5047253;28;20025;-62
2021/04/28 05:32:46;;;;;;;12.05;5.75;;;7.60;52.60;;;;;;5047678;28;20470;-62
2021/04/28 05:35:12;;;;;;;11.20;6.32;;;8.30;51.20;;;;;;5029727;28;20441;-62
2021/04/28 05:37:38;;;;;;;9.38;5.93;;;8.20;51.20;;;;;;5045742;28;20024;-62
2021/04/28 05:40:07;;;;;;;16.13;6.35;;;8.10;52.00;;;;;;5047370;28;20092;-62
2021/04/28 05:42:33;;;;;;;12.73;5.93;;;8.90;50.00;;;;;;5046344;28;20029;-62
2021/04/28 05:44:58;;;;;;;12.75;6.30;;;8.50;50.80;;;;;;5047346;28;20079;-62
2021/04/28 05:47:24;;;;;;;10.65;5.93;;;8.60;50.70;;;;;;5045101;28;20060;-62
2021/04/28 05:49:50;;;;;;;10.75;5.70;;;8.30;51.10;;;;;;5046946;28;20025;-62
2021/04/28 05:52:16;;;;;;;13.75;5.75;;;9.10;50.10;;;;;;5046504;28;20455;-62
2021/04/28 05:54:42;;;;;;;9.20;5.40;;;9.50;49.00;;;;;;5046169;28;20499;-62
2021/04/28 05:57:11;;;;;;;10.00;5.90;;;9.60;49.70;;;;;;5048006;28;20059;-62
2021/04/28 05:59:36;;;;;;;16.60;6.20;;;10.40;47.50;;;;;;5043022;28;20024;-62
2021/04/28 06:02:02;;;;;;;12.73;6.38;;;9.00;49.40;;;;;;5047165;28;20009;-62
2021/04/28 06:04:28;;;;;;;10.20;6.68;;;8.70;51.60;;;;;;5047729;28;20623;-62
2021/04/28 06:06:53;;;;;;;10.85;7.10;;;8.30;52.60;;;;;;5046630;28;20128;-62
2021/04/28 06:09:19;;;;;;;14.00;8.23;;;7.80;52.70;;;;;;5046692;28;20066;-63
2021/04/28 06:11:45;;;;;;;21.13;9.90;;;7.70;53.70;;;;;;5046958;28;20091;-62
2021/04/28 06:14:10;;;;;;;19.73;9.80;;;7.80;53.10;;;;;;5047380;28;20024;-62
2021/04/28 06:16:36;;;;;;;14.68;8.02;;;8.30;53.00;;;;;;5045983;28;20086;-62
2021/04/28 06:19:02;;;;;;;11.60;6.90;;;8.10;52.90;;;;;;5044544;28;20021;-62
2021/04/28 06:21:28;;;;;;;9.93;6.47;;;7.80;52.90;;;;;;5045876;28;20021;-62
2021/04/28 06:23:53;;;;;;;11.43;6.20;;;8.70;51.20;;;;;;5045208;28;20025;-63
2021/04/28 06:26:19;;;;;;;278.80;124.32;;;8.50;52.00;;;;;;5047502;28;20033;-67
2021/04/28 06:28:45;;;;;;;13.70;8.20;;;8.40;52.10;;;;;;5046860;28;20014;-62
2021/04/28 06:31:11;;;;;;;12.05;6.50;;;7.70;54.00;;;;;;5044843;28;20101;-61
2021/04/28 06:33:37;;;;;;;11.93;6.53;;;7.60;54.60;;;;;;5045638;28;20092;-61
2021/04/28 06:36:02;;;;;;;16.73;5.93;;;7.50;55.20;;;;;;5044951;28;20261;-60
2021/04/28 06:38:28;;;;;;;10.82;6.32;;;7.70;54.40;;;;;;5047015;28;20057;-60
2021/04/28 06:40:54;;;;;;;7.63;6.10;;;8.10;53.60;;;;;;5047807;28;20620;-62
2021/04/28 06:43:19;;;;;;;11.30;6.22;;;8.70;51.90;;;;;;5046047;28;20494;-61
2021/04/28 06:45:45;;;;;;;13.07;5.97;;;9.00;51.10;;;;;;5047160;28;20410;-62
2021/04/28 06:48:11;;;;;;;10.68;6.10;;;8.70;52.40;;;;;;5045483;28;20104;-62
2021/04/28 06:50:36;;;;;;;11.15;5.88;;;8.60;52.40;;;;;;5045679;28;20368;-62
2021/04/28 06:53:02;;;;;;;11.48;6.03;;;9.00;52.00;;;;;;5046176;28;20021;-60
2021/04/28 06:55:28;;;;;;;8.68;5.80;;;9.80;50.50;;;;;;5029863;28;20025;-59
2021/04/28 06:57:56;;;;;;;11.90;6.53;;;9.70;50.20;;;;;;5047851;28;20025;-58
2021/04/28 07:00:23;;;;;;;8.70;6.10;;;10.00;49.30;;;;;;5045438;28;20092;-61
2021/04/28 07:02:49;;;;;;;12.77;6.50;;;9.70;49.40;;;;;;5047303;28;20498;-61
2021/04/28 07:05:14;;;;;;;12.57;6.95;;;9.50;50.60;;;;;;5048791;28;20033;-61
2021/04/28 07:07:40;;;;;;;9.35;5.97;;;9.30;51.40;;;;;;5049279;28;20049;-64
2021/04/28 07:10:07;;;;;;;10.18;6.18;;;9.70;50.30;;;;;;5050896;28;20029;-61
2021/04/28 07:12:33;;;;;;;9.93;6.70;;;9.80;49.00;;;;;;5051335;28;20355;-61
2021/04/28 07:14:59;;;;;;;12.20;6.70;;;10.40;47.90;;;;;;5049587;28;20032;-61
2021/04/28 07:17:24;;;;;;;14.15;6.75;;;10.50;48.10;;;;;;5049262;28;20037;-60
2021/04/28 07:19:51;;;;;;;10.80;6.20;;;10.40;48.20;;;;;;5051400;28;20402;-60
2021/04/28 07:22:16;;;;;;;12.75;6.07;;;9.80;48.90;;;;;;5051209;28;20301;-61
2021/04/28 07:24:42;;;;;;;7.45;5.32;;;10.00;47.90;;;;;;5050588;28;20071;-62
2021/04/28 07:27:08;;;;;;;9.65;6.40;;;10.20;47.90;;;;;;5051502;28;20021;-60
2021/04/28 07:29:33;;;;;;;14.85;6.93;;;10.30;48.50;;;;;;5050693;28;20384;-60
2021/04/28 07:32:02;;;;;;;11.45;5.82;;;11.00;48.80;;;;;;5050477;28;20078;-60
2021/04/28 07:34:28;;;;;;;11.88;6.45;;;11.20;46.50;;;;;;5051169;28;20094;-60
2021/04/28 07:36:54;;;;;;;11.70;6.80;;;12.80;44.10;;;;;;5050878;28;20096;-61
2021/04/28 07:39:19;;;;;;;13.82;7.13;;;12.60;43.80;;;;;;5051140;28;20097;-58
2021/04/28 07:41:45;;;;;;;10.48;6.57;;;12.30;45.50;;;;;;5050660;28;20025;-59
2021/04/28 07:44:10;;;;;;;17.02;7.28;;;13.50;43.40;;;;;;5051183;28;20025;-58
2021/04/28 07:46:36;;;;;;;13.35;6.35;;;13.10;42.30;;;;;;5050448;28;20021;-59
2021/04/28 07:49:06;;;;;;;9.57;5.95;;;13.10;43.20;;;;;;5049122;28;20470;-59
2021/04/28 07:51:32;;;;;;;9.73;6.47;;;12.60;43.10;;;;;;5049550;28;20498;-60
2021/04/28 07:53:58;;;;;;;15.10;6.80;;;12.60;42.70;;;;;;5048757;28;20411;-60
2021/04/28 07:56:23;;;;;;;10.60;6.15;;;12.50;45.30;;;;;;5049127;28;20067;-60
2021/04/28 07:58:49;;;;;;;10.30;6.00;;;13.80;42.20;;;;;;5052722;28;20033;-60
2021/04/28 08:01:14;;;;;;;11.85;7.18;;;13.30;42.00;;;;;;5057075;28;20023;-62
2021/04/28 08:03:40;;;;;;;11.50;6.35;;;13.50;41.60;;;;;;5057300;28;20042;-60
2021/04/28 08:06:06;;;;;;;13.48;6.15;;;14.20;42.20;;;;;;5063441;28;20133;-60
2021/04/28 08:08:31;;;;;;;13.10;6.63;;;14.70;39.90;;;;;;5050219;28;20033;-60
2021/04/28 08:10:57;;;;;;;9.40;6.00;;;14.50;41.60;;;;;;5049676;28;20013;-61
2021/04/28 08:13:22;;;;;;;10.63;6.47;;;14.60;40.80;;;;;;5049371;28;20120;-60
2021/04/28 08:15:49;;;;;;;12.48;6.22;;;14.40;42.00;;;;;;5049208;28;20032;-63
2021/04/28 08:18:15;;;;;;;12.80;6.80;;;13.90;42.50;;;;;;5048046;28;20031;-61
2021/04/28 08:20:41;;;;;;;12.43;6.72;;;13.50;43.50;;;;;;5049424;28;20122;-62
2021/04/28 08:23:06;;;;;;;15.75;7.07;;;13.80;42.90;;;;;;5048776;28;20115;-63
2021/04/28 08:25:32;;;;;;;11.77;6.75;;;14.50;42.30;;;;;;5031241;28;20095;-63
2021/04/28 08:27:59;;;;;;;10.55;6.50;;;14.40;41.20;;;;;;5048492;28;20463;-64
2021/04/28 08:30:25;;;;;;;9.73;6.50;;;13.50;43.50;;;;;;5050231;28;20106;-63
2021/04/28 08:32:50;;;;;;;9.52;6.80;;;13.60;43.00;;;;;;5047911;28;20479;-63
2021/04/28 08:35:16;;;;;;;11.73;6.90;;;13.40;44.30;;;;;;5049721;28;20310;-62
2021/04/28 08:37:46;;;;;;;13.48;6.85;;;13.10;43.70;;;;;;5048879;28;20021;-63
2021/04/28 08:40:13;;;;;;;14.98;7.13;;;13.00;44.40;;;;;;5050334;28;20029;-63
2021/04/28 08:42:39;;;;;;;17.60;6.80;;;13.10;43.80;;;;;;5049563;28;20451;-62
2021/04/28 08:45:05;;;;;;;11.45;6.63;;;13.40;43.90;;;;;;5032780;28;20075;-62
2021/04/28 08:47:31;;;;;;;13.65;7.72;;;12.40;45.30;;;;;;5047470;28;20785;-63
2021/04/28 08:49:56;;;;;;;34.33;17.73;;;12.40;45.60;;;;;;5048990;28;20017;-68
2021/04/28 08:52:22;;;;;;;90.00;39.90;;;12.30;45.20;;;;;;5048861;28;20029;-63
2021/04/28 08:54:48;;;;;;;17.52;7.53;;;12.50;45.80;;;;;;5047441;28;20032;-62
2021/04/28 08:57:13;;;;;;;13.77;7.63;;;11.80;46.70;;;;;;5049289;28;20013;-62
2021/04/28 08:59:39;;;;;;;15.57;7.85;;;12.00;47.10;;;;;;5047949;28;20521;-61
2021/04/28 09:02:22;;;;;;;19.17;7.55;;;12.30;46.60;;;;;;5049487;28;20021;-63
2021/04/28 09:05:22;;;;;;;;;;;12.10;45.60;;;;;;5049379;28;20076;-62
2021/04/28 09:07:47;;;;;;;13.75;7.60;;;12.30;46.60;;;;;;5024766;28;19916;-65
2021/04/28 09:10:39;;;;;;;11.07;7.30;;;12.50;45.80;;;;;;5049743;28;20112;-63
2021/04/28 09:13:07;;;;;;;11.48;7.68;;;12.50;45.90;;;;;;5047985;28;20068;-61
2021/04/28 09:15:48;;;;;;;16.67;8.43;;;12.00;46.40;;;;;;5049677;28;20036;-61
2021/04/28 09:18:16;;;;;;;10.85;7.03;;;12.30;45.10;;;;;;5030058;28;20029;-61
2021/04/28 09:20:48;;;;;;;11.43;7.65;;;12.00;45.30;;;;;;5048498;28;20028;-62
2021/04/28 09:23:18;;;;;;;15.35;7.78;;;11.60;45.90;;;;;;5048425;28;20490;-62
2021/04/28 09:25:51;;;;;;;10.68;7.55;;;11.80;46.20;;;;;;5046302;28;20036;-62
2021/04/28 09:28:20;;;;;;;15.48;7.43;;;11.50;46.80;;;;;;5044979;28;20391;-61
2021/04/28 09:30:46;;;;;;;13.18;8.05;;;11.70;47.10;;;;;;5048330;28;20588;-61
2021/04/28 09:33:12;;;;;;;14.93;8.18;;;11.90;46.40;;;;;;5028636;28;20180;-63
2021/04/28 09:35:37;;;;;;;16.05;8.00;;;12.10;46.20;;;;;;5046535;28;20361;-62
2021/04/28 09:38:03;;;;;;;11.02;7.90;;;12.10;46.40;;;;;;5048002;28;20039;-59
2021/04/28 09:40:48;;;;;;;10.68;7.70;;;12.10;46.40;;;;;;5048373;28;20044;-63
2021/04/28 09:43:14;;;;;;;16.08;7.97;;;12.10;46.50;;;;;;5046256;28;20074;-63
2021/04/28 09:45:41;;;;;;;16.02;8.25;;;12.20;45.70;;;;;;5013569;28;20368;-62
2021/04/28 09:48:08;;;;;;;13.43;8.30;;;12.30;45.70;;;;;;5045337;28;20074;-62
2021/04/28 09:50:34;;;;;;;14.25;7.50;;;12.40;45.60;;;;;;5046865;28;20009;-62
2021/04/28 09:52:59;;;;;;;13.90;8.40;;;12.40;45.20;;;;;;5048993;28;20372;-62
2021/04/28 09:55:25;;;;;;;17.77;8.25;;;12.70;45.90;;;;;;5047534;28;20136;-64
2021/04/28 09:57:52;;;;;;;11.13;8.13;;;13.00;45.80;;;;;;5047938;28;20027;-62
2021/04/28 10:00:22;;;;;;;20.25;8.32;;;13.10;44.50;;;;;;5047340;28;20063;-63
2021/04/28 10:02:52;;;;;;;11.20;7.82;;;12.90;44.70;;;;;;5029487;28;20360;-63
2021/04/28 10:05:29;;;;;;;13.70;8.32;;;13.10;45.30;;;;;;5027895;28;20495;-63
2021/04/28 10:08:14;;;;;;;11.30;8.05;;;13.30;44.90;;;;;;5046528;28;20094;-62
2021/04/28 10:10:41;;;;;;;14.20;7.88;;;13.50;44.40;;;;;;5045182;28;20021;-62
2021/04/28 10:13:07;;;;;;;17.40;8.40;;;13.50;45.10;;;;;;5047713;28;20021;-63
2021/04/28 10:15:33;;;;;;;12.15;8.45;;;13.40;44.30;;;;;;5048038;28;20025;-64
2021/04/28 10:18:04;;;;;;;93.47;49.60;;;14.00;43.50;;;;;;5044289;28;20051;-70
2021/04/28 10:20:30;;;;;;;25.00;14.20;;;14.50;43.70;;;;;;5047816;28;20036;-62
2021/04/28 10:22:56;;;;;;;15.68;9.38;;;14.00;42.70;;;;;;5046710;28;20063;-61
2021/04/28 10:25:22;;;;;;;17.80;8.70;;;13.80;43.80;;;;;;5048178;28;20056;-63
2021/04/28 10:27:47;;;;;;;15.73;8.38;;;13.60;43.60;;;;;;5032222;28;20028;-61
2021/04/28 10:30:16;;;;;;;15.25;8.48;;;13.80;44.00;;;;;;5051065;28;20086;-62
2021/04/28 10:32:42;;;;;;;12.68;8.80;;;14.40;42.80;;;;;;5059552;28;20033;-62
2021/04/28 10:35:14;;;;;;;16.58;8.65;;;13.70;43.00;;;;;;5047221;28;20024;-66
2021/04/28 10:37:41;;;;;;;13.63;9.55;;;13.80;43.20;;;;;;5046656;28;20103;-64
2021/04/28 10:40:14;;;;;;;12.25;8.45;;;14.20;43.80;;;;;;5049055;28;20031;-63
2021/04/28 10:42:40;;;;;;;18.38;8.43;;;14.10;42.60;;;;;;5049258;28;20094;-65
2021/04/28 10:45:07;;;;;;;15.30;8.88;;;14.00;42.60;;;;;;5051705;28;20025;-65
2021/04/28 10:47:53;;;;;;;14.35;8.88;;;13.60;42.80;;;;;;5049350;28;20039;-68
2021/04/28 10:50:25;;;;;;;16.15;9.05;;;13.90;43.90;;;;;;5063776;28;20041;-63
2021/04/28 10:52:59;;;;;;;12.40;9.60;;;14.10;42.40;;;;;;5071963;28;20489;-64
2021/04/28 10:55:46;;;;;;;13.45;9.50;;;13.90;43.00;;;;;;5070775;28;20036;-64
2021/04/28 10:58:31;;;;;;;13.73;8.43;;;14.20;43.40;;;;;;5055622;28;20387;-63
2021/04/28 11:00:59;;;;;;;12.63;8.82;;;14.30;42.50;;;;;;5051662;28;20028;-65
2021/04/28 11:03:41;;;;;;;16.23;9.85;;;14.50;41.60;;;;;;5051735;28;20037;-66
2021/04/28 11:06:28;;;;;;;18.98;9.00;;;14.40;42.30;;;;;;5051543;28;20053;-64
2021/04/28 11:08:57;;;;;;;15.73;9.13;;;14.60;42.50;;;;;;5050828;28;20080;-63
2021/04/28 11:11:37;;;;;;;13.50;9.50;;;14.80;42.20;;;;;;5048130;28;20120;-64
2021/04/28 11:14:15;;;;;;;15.75;9.70;;;14.80;41.80;;;;;;5049866;28;20438;-65
2021/04/28 11:16:48;;;;;;;13.30;9.35;;;14.90;41.90;;;;;;5048709;28;20419;-64
2021/04/28 11:19:21;;;;;;;17.88;9.75;;;15.00;42.10;;;;;;5047667;28;20024;-63
2021/04/28 11:22:24;;;;;;;15.80;10.07;;;14.90;40.50;;;;;;5051211;28;20509;-66
2021/04/28 11:25:10;;;;;;;15.13;9.32;;;15.00;40.10;;;;;;5050584;28;20271;-66
2021/04/28 11:28:03;;;;;;;19.98;10.20;;;14.70;40.10;;;;;;5029932;28;20037;-66
2021/04/28 11:30:31;;;;;;;16.77;9.95;;;14.70;40.70;;;;;;5061093;28;20123;-68
2021/04/28 11:33:12;;;;;;;185.15;97.63;;;14.90;40.10;;;;;;5067022;28;20464;-68
2021/04/28 11:36:06;;;;;;;71.53;33.22;;;14.80;40.10;;;;;;5048567;28;20092;-70
2021/04/28 11:38:38;;;;;;;16.33;10.95;;;14.80;40.40;;;;;;5048572;28;20192;-65
2021/04/28 11:41:10;;;;;;;19.95;11.27;;;14.90;40.80;;;;;;5049312;28;20392;-65
2021/04/28 11:43:36;;;;;;;13.13;10.07;;;15.00;41.10;;;;;;5049812;28;20104;-65
2021/04/28 11:46:05;;;;;;;16.42;10.80;;;15.00;40.30;;;;;;5051161;28;20550;-69
2021/04/28 11:48:31;;;;;;;17.48;10.65;;;15.10;40.80;;;;;;5047859;28;20100;-68
2021/04/28 11:50:58;;;;;;;14.75;10.52;;;15.00;40.40;;;;;;5049067;28;20025;-69
2021/04/28 11:53:24;;;;;;;16.58;11.27;;;15.00;40.70;;;;;;5050624;28;20126;-69
2021/04/28 11:55:50;;;;;;;14.20;10.50;;;15.10;39.80;;;;;;5050072;28;20036;-69
2021/04/28 11:58:18;;;;;;;16.70;11.73;;;15.30;39.50;;;;;;5050804;28;20025;-69
2021/04/28 12:00:44;;;;;;;22.73;11.68;;;15.30;39.70;;;;;;5050090;28;20059;-69
2021/04/28 12:03:10;;;;;;;17.10;11.02;;;15.40;40.10;;;;;;5048888;28;20057;-69
2021/04/28 12:05:35;;;;;;;16.23;11.80;;;15.60;40.40;;;;;;5050151;28;20369;-70
2021/04/28 12:08:03;;;;;;;17.55;12.02;;;15.70;39.30;;;;;;5050582;28;20040;-71
2021/04/28 12:10:29;;;;;;;18.30;11.65;;;15.80;40.40;;;;;;5032614;28;20194;-68
2021/04/28 12:12:55;;;;;;;17.90;11.40;;;15.80;39.80;;;;;;5059413;28;20103;-69
2021/04/28 12:15:20;;;;;;;20.50;12.65;;;16.00;39.80;;;;;;5059629;28;20029;-70
2021/04/28 12:17:47;;;;;;;22.48;11.63;;;15.60;39.40;;;;;;5054861;28;20437;-69
2021/04/28 12:20:14;;;;;;;18.50;12.40;;;15.90;39.80;;;;;;5063418;28;20036;-71
2021/04/28 12:22:41;;;;;;;17.20;11.43;;;15.80;39.50;;;;;;5068017;28;20037;-72
2021/04/28 12:25:08;;;;;;;17.23;11.23;;;16.20;39.70;;;;;;5059374;28;20036;-70
2021/04/28 12:27:34;;;;;;;22.83;11.18;;;16.30;40.10;;;;;;5049903;28;20033;-72
2021/04/28 12:30:02;;;;;;;19.85;11.75;;;16.10;39.20;;;;;;5049337;28;20052;-72
2021/04/28 12:32:35;;;;;;;16.30;11.88;;;16.30;38.90;;;;;;5045043;28;20441;-71
2021/04/28 12:35:14;;;;;;;;;;;16.30;39.40;;;;;;5055392;28;20154;-70
2021/04/28 12:37:41;;;;;;;18.95;11.93;;;16.30;39.40;;;;;;5040568;28;20400;-72
2021/04/28 12:40:10;;;;;;;17.52;12.00;;;16.20;39.40;;;;;;5048364;28;20024;-71
2021/04/28 12:42:36;;;;;;;17.13;11.45;;;16.30;39.10;;;;;;5026008;28;20064;-72
2021/04/28 12:45:10;;;;;;;26.52;11.80;;;16.50;39.60;;;;;;5029036;28;20840;-72
2021/04/28 12:47:35;;;;;;;21.80;13.05;;;16.60;39.10;;;;;;5024894;28;20108;-72